createdAt,value
2023-04-21T00:00:11.437Z,100035.92
2023-04-21T00:02:41.974Z,100035.70
2023-04-21T00:05:11.347Z,100033.80
2023-04-21T00:07:41.853Z,100035.27
2023-04-21T00:10:11.320Z,100031.45
2023-04-21T00:12:41.534Z,100028.58
2023-04-21T00:15:10.609Z,100030.11
2023-04-21T00:17:41.533Z,100024.66
2023-04-21T00:20:14.709Z,100027.66
2023-04-21T00:22:44.306Z,100025.25
2023-04-21T00:25:13.009Z,100022.70
2023-04-21T00:27:42.499Z,100023.14
2023-04-21T00:30:12.695Z,100019.35
2023-04-21T00:32:42.103Z,100019.30
2023-04-21T00:35:10.808Z,100017.55
2023-04-21T00:37:40.542Z,100018.77
2023-04-21T00:40:10.861Z,100012.75
2023-04-21T00:42:41.967Z,100013.56
2023-04-21T00:45:10.975Z,100013.51
2023-04-21T00:47:40.243Z,100013.69
2023-04-21T00:50:10.693Z,100014.61
2023-04-21T00:52:40.663Z,100006.91
2023-04-21T00:55:10.583Z,100005.37
2023-04-21T00:57:39.237Z,100003.73
2023-04-21T01:00:09.136Z,99998.27
2023-04-21T01:02:40.033Z,100000.08
2023-04-21T01:05:09.490Z,99998.00
2023-04-21T01:07:40.095Z,99998.58
2023-04-21T01:10:09.263Z,99996.48
2023-04-21T01:12:45.767Z,99994.35
2023-04-21T01:15:17.018Z,99993.85
2023-04-21T01:17:46.211Z,99996.14
2023-04-21T01:20:16.250Z,99994.61
2023-04-21T01:22:48.167Z,99992.48
2023-04-21T01:25:18.878Z,99994.11
2023-04-21T01:27:47.578Z,99992.54
2023-04-21T01:30:15.927Z,99993.65
2023-04-21T01:32:44.993Z,99989.29
2023-04-21T01:35:14.499Z,99988.35
2023-04-21T01:37:42.826Z,99983.47
2023-04-21T01:40:11.516Z,99989.79
2023-04-21T01:42:41.399Z,99987.86
2023-04-21T01:45:10.474Z,99985.20
2023-04-21T01:47:39.402Z,99985.11
2023-04-21T01:50:08.746Z,99982.77
2023-04-21T01:52:37.367Z,99979.52
2023-04-21T01:55:06.598Z,99985.09
2023-04-21T01:57:36.556Z,99981.53
2023-04-21T02:00:06.224Z,99975.33
2023-04-21T02:02:46.539Z,99975.26
2023-04-21T02:05:15.234Z,99973.15
2023-04-21T02:07:43.695Z,99968.70
2023-04-21T02:10:12.614Z,99970.78
2023-04-21T02:12:41.774Z,99973.09
2023-04-21T02:15:12.004Z,99969.83
2023-04-21T02:17:43.109Z,99974.50
2023-04-21T02:20:12.829Z,99972.11
2023-04-21T02:22:42.263Z,99970.93
2023-04-21T02:25:10.908Z,99971.66
2023-04-21T02:27:40.638Z,99972.06
2023-04-21T02:30:09.803Z,99970.18
2023-04-21T02:32:39.075Z,99967.63
2023-04-21T02:35:08.053Z,99967.61
2023-04-21T02:37:36.820Z,99966.36
2023-04-21T02:40:07.379Z,99967.90
2023-04-21T02:42:36.223Z,99966.41
2023-04-21T02:45:05.123Z,99970.20
2023-04-21T02:47:35.488Z,99969.20
2023-04-21T02:50:07.273Z,99970.00
2023-04-21T02:52:38.259Z,99966.43
2023-04-21T02:55:07.457Z,99969.12
2023-04-21T02:57:36.016Z,99972.50
2023-04-21T03:00:05.265Z,99970.36
2023-04-21T03:02:35.075Z,99977.61
2023-04-21T03:05:04.555Z,99973.71
2023-04-21T03:07:33.264Z,99972.84
2023-04-21T03:10:01.701Z,99977.67
2023-04-21T03:12:30.895Z,99973.57
2023-04-21T03:14:59.836Z,99977.84
2023-04-21T03:17:29.359Z,99985.39
2023-04-21T03:19:58.883Z,99984.46
2023-04-21T03:22:27.532Z,99985.62
2023-04-21T03:24:55.932Z,99983.84
2023-04-21T03:27:24.312Z,99983.13
2023-04-21T03:29:52.689Z,99983.77
2023-04-21T03:32:22.163Z,99982.09
2023-04-21T03:34:51.722Z,99983.33
2023-04-21T03:37:21.110Z,99983.38
2023-04-21T03:39:50.746Z,99990.73
2023-04-21T03:42:19.808Z,99989.60
2023-04-21T03:44:48.122Z,99989.46
2023-04-21T03:47:18.802Z,99993.83
2023-04-21T03:49:49.070Z,99997.38
2023-04-21T03:52:18.246Z,99995.57
2023-04-21T03:54:46.747Z,99999.48
2023-04-21T03:57:16.407Z,99994.70
2023-04-21T03:59:46.128Z,99996.84
2023-04-21T04:02:15.380Z,99999.68
2023-04-21T04:04:44.414Z,100003.23
2023-04-21T04:07:14.770Z,100008.80
2023-04-21T04:09:45.390Z,100003.50
2023-04-21T04:12:14.312Z,100009.95
2023-04-21T04:14:43.086Z,100008.74
2023-04-21T04:17:13.183Z,100012.64
2023-04-21T04:19:41.732Z,100017.74
2023-04-21T04:22:10.094Z,100012.77
2023-04-21T04:24:39.424Z,100014.48
2023-04-21T04:27:08.064Z,100014.23
2023-04-21T04:29:36.525Z,100014.36
2023-04-21T04:32:06.837Z,100014.45
2023-04-21T04:34:37.914Z,100014.14
2023-04-21T04:37:07.236Z,100013.62
2023-04-21T04:39:37.531Z,100012.05
2023-04-21T04:42:12.011Z,100009.52
2023-04-21T04:44:41.859Z,100009.42
2023-04-21T04:47:10.803Z,100011.66
2023-04-21T04:49:40.426Z,100006.55
2023-04-21T04:52:09.147Z,100003.73
2023-04-21T04:54:37.912Z,100014.14
2023-04-21T04:57:06.680Z,100015.23
2023-04-21T04:59:37.030Z,100013.45
2023-04-21T05:02:05.872Z,100017.23
2023-04-21T05:04:35.922Z,100022.58
2023-04-21T05:07:10.454Z,100021.23
2023-04-21T05:09:39.248Z,100017.84
2023-04-21T05:12:10.196Z,100017.59
2023-04-21T05:14:38.787Z,100025.62
2023-04-21T05:17:08.188Z,100027.70
2023-04-21T05:19:58.863Z,100028.52
2023-04-21T05:22:27.623Z,100028.92
2023-04-21T05:24:57.353Z,100028.13
2023-04-21T05:27:27.117Z,100024.90
2023-04-21T05:29:55.972Z,100028.61
2023-04-21T05:32:25.394Z,100028.41
2023-04-21T05:34:56.771Z,100028.48
2023-04-21T05:37:26.026Z,100021.30
2023-04-21T05:39:54.934Z,100022.95
2023-04-21T05:42:25.398Z,100030.17
2023-04-21T05:44:56.318Z,100026.66
2023-04-21T05:47:24.960Z,100027.30
2023-04-21T05:49:54.078Z,100027.75
2023-04-21T05:52:22.616Z,100026.17
2023-04-21T05:54:51.408Z,100026.30
2023-04-21T05:57:20.580Z,100024.65
2023-04-21T05:59:51.246Z,100030.40
2023-04-21T06:02:23.303Z,100031.85
2023-04-21T06:04:52.762Z,100041.64
2023-04-21T06:07:21.727Z,100033.05
2023-04-21T06:09:51.667Z,100029.17
2023-04-21T06:12:21.927Z,100031.83
2023-04-21T06:14:50.710Z,100036.56
2023-04-21T06:17:20.033Z,100041.69
2023-04-21T06:19:53.438Z,100044.34
2023-04-21T06:22:24.814Z,100056.06
2023-04-21T06:24:55.460Z,100056.70
2023-04-21T06:27:24.366Z,100051.45
2023-04-21T06:29:58.734Z,100054.60
2023-04-21T06:32:27.558Z,100052.17
2023-04-21T06:34:56.864Z,100053.11
2023-04-21T06:37:25.279Z,100057.50
2023-04-21T06:39:53.581Z,100060.96
2023-04-21T06:42:21.987Z,100059.36
2023-04-21T06:44:51.033Z,100056.26
2023-04-21T06:47:19.578Z,100052.34
2023-04-21T06:49:47.890Z,100059.89
2023-04-21T06:52:17.767Z,100062.48
2023-04-21T06:54:47.633Z,100070.34
2023-04-21T06:57:17.603Z,100071.98
2023-04-21T06:59:46.211Z,100070.31
2023-04-21T07:02:14.674Z,100076.11
2023-04-21T07:04:43.329Z,100080.66
2023-04-21T07:07:11.879Z,100068.46
2023-04-21T07:09:42.786Z,100077.42
2023-04-21T07:12:11.106Z,100073.95
2023-04-21T07:14:39.503Z,100070.80
2023-04-21T07:17:07.883Z,100075.56
2023-04-21T07:19:37.349Z,100068.13
2023-04-21T07:22:05.829Z,100068.67
2023-04-21T07:24:35.828Z,100073.60
2023-04-21T07:27:04.461Z,100068.44
2023-04-21T07:29:32.957Z,100078.79
2023-04-21T07:32:01.400Z,100076.86
2023-04-21T07:34:29.887Z,100075.10
2023-04-21T07:36:58.246Z,100080.79
2023-04-21T07:39:26.787Z,100087.31
2023-04-21T07:41:56.201Z,100088.77
2023-04-21T07:44:24.540Z,100086.49
2023-04-21T07:46:52.919Z,100085.02
2023-04-21T07:49:21.519Z,100089.33
2023-04-21T07:51:50.097Z,100088.46
2023-04-21T07:54:18.455Z,100090.54
2023-04-21T07:56:46.837Z,100089.95
2023-04-21T07:59:15.386Z,100092.68
2023-04-21T08:01:43.823Z,100096.21
2023-04-21T08:04:12.459Z,100102.80
2023-04-21T08:06:41.203Z,100097.55
2023-04-21T08:09:09.824Z,100099.14
2023-04-21T08:11:38.178Z,100097.29
2023-04-21T08:14:07.292Z,100094.77
2023-04-21T08:16:35.787Z,100099.17
2023-04-21T08:19:04.857Z,100107.91
2023-04-21T08:21:33.736Z,100100.94
2023-04-21T08:24:02.552Z,100105.57
2023-04-21T08:26:31.480Z,100110.38
2023-04-21T08:29:03.464Z,100104.73
2023-04-21T08:31:32.995Z,100106.34
2023-04-21T08:34:03.135Z,100116.59
2023-04-21T08:36:32.230Z,100107.15
2023-04-21T08:39:02.350Z,100116.60
2023-04-21T08:41:30.701Z,100111.45
2023-04-21T08:44:01.750Z,100106.16
2023-04-21T08:46:30.349Z,100100.46
2023-04-21T08:48:59.411Z,100103.16
2023-04-21T08:51:28.562Z,100098.58
2023-04-21T08:53:56.975Z,100106.48
2023-04-21T08:56:26.605Z,100105.41
2023-04-21T08:58:55.267Z,100105.56
2023-04-21T09:01:23.743Z,100109.45
2023-04-21T09:03:52.678Z,100102.77
2023-04-21T09:06:21.815Z,100098.85
2023-04-21T09:08:57.884Z,100094.88
2023-04-21T09:11:26.142Z,100101.19
2023-04-21T09:13:56.971Z,100100.31
2023-04-21T09:16:25.267Z,100108.05
2023-04-21T09:18:53.553Z,100108.88
2023-04-21T09:21:23.541Z,100108.02
2023-04-21T09:23:53.278Z,100101.13
2023-04-21T09:26:23.321Z,100107.27
2023-04-21T09:28:52.802Z,100107.09
2023-04-21T09:31:30.424Z,100110.83
2023-04-21T09:34:00.693Z,100109.55
2023-04-21T09:36:32.472Z,100106.83
2023-04-21T09:41:33.913Z,100107.31
2023-04-21T09:44:04.713Z,100104.61
2023-04-21T09:46:35.313Z,100096.69
2023-04-21T09:49:03.971Z,100105.04
2023-04-21T09:51:56.172Z,100104.30
2023-04-21T09:56:54.557Z,100104.98
2023-04-21T09:59:27.829Z,100111.53
2023-04-21T10:01:56.758Z,100109.55
2023-04-21T10:04:26.458Z,100110.83
2023-04-21T10:06:55.161Z,100112.70
2023-04-21T10:09:24.431Z,100106.27
2023-04-21T10:11:53.338Z,100110.83
2023-04-21T10:14:22.975Z,100102.16
2023-04-21T10:17:03.754Z,100105.04
2023-04-21T10:19:40.163Z,100110.20
2023-04-21T10:22:10.175Z,100105.95
2023-04-21T10:24:40.456Z,100104.00
2023-04-21T10:27:12.399Z,100107.70
2023-04-21T10:29:55.669Z,100112.48
2023-04-21T10:32:41.765Z,100112.69
2023-04-21T10:35:49.215Z,100114.33
2023-04-21T10:38:42.782Z,100118.96
2023-04-21T10:41:30.277Z,100117.77
2023-04-21T10:44:19.322Z,100116.66
2023-04-21T10:46:54.301Z,100119.49
2023-04-21T10:49:23.932Z,100121.27
2023-04-21T10:52:04.416Z,100119.45
2023-04-21T10:54:42.397Z,100128.04
2023-04-21T10:57:12.406Z,100140.14
2023-04-21T10:59:40.986Z,100138.63
2023-04-21T11:02:14.414Z,100137.22
2023-04-21T11:04:49.563Z,100132.23
2023-04-21T11:07:23.337Z,100131.58
2023-04-21T11:09:59.036Z,100134.38
2023-04-21T11:12:31.821Z,100129.27
2023-04-21T11:15:00.249Z,100133.48
2023-04-21T11:17:28.842Z,100142.92
2023-04-21T11:19:57.172Z,100132.21
2023-04-21T11:22:26.588Z,100142.44
2023-04-21T11:24:56.070Z,100135.52
2023-04-21T11:27:26.700Z,100138.29
2023-04-21T11:29:55.206Z,100141.02
2023-04-21T11:32:24.145Z,100138.11
2023-04-21T11:34:52.650Z,100141.48
2023-04-21T11:37:24.966Z,100142.78
2023-04-21T11:40:00.598Z,100147.04
2023-04-21T11:42:29.404Z,100154.58
2023-04-21T11:44:58.209Z,100150.45
2023-04-21T11:47:27.794Z,100149.52
2023-04-21T11:49:57.480Z,100146.27
2023-04-21T11:52:29.325Z,100144.50
2023-04-21T11:55:02.535Z,100141.88
2023-04-21T11:57:33.585Z,100147.95
2023-04-21T12:00:02.860Z,100147.06
2023-04-21T12:02:34.178Z,100140.02
2023-04-21T12:05:11.121Z,100153.74
2023-04-21T12:07:43.448Z,100149.84
2023-04-21T12:10:14.049Z,100151.98
2023-04-21T12:12:43.895Z,100150.91
2023-04-21T12:15:13.829Z,100152.59
2023-04-21T12:17:47.300Z,100159.90
2023-04-21T12:20:16.694Z,100156.95
2023-04-21T12:22:45.528Z,100156.00
2023-04-21T12:25:14.122Z,100155.39
2023-04-21T12:27:53.177Z,100164.98
2023-04-21T12:30:21.739Z,100150.23
2023-04-21T12:32:52.534Z,100152.13
2023-04-21T12:35:21.209Z,100155.70
2023-04-21T12:37:49.820Z,100157.35
2023-04-21T12:40:18.390Z,100155.46
2023-04-21T12:42:48.955Z,100150.40
2023-04-21T12:45:17.497Z,100146.02
2023-04-21T12:47:46.999Z,100149.32
2023-04-21T12:50:16.112Z,100142.97
2023-04-21T12:52:44.618Z,100140.14
2023-04-21T12:55:13.710Z,100148.42
2023-04-21T13:04:19.068Z,100154.86
2023-04-21T13:14:21.978Z,100152.19
2023-04-21T13:16:49.415Z,100159.39
2023-04-21T13:19:16.326Z,100151.53
2023-04-21T13:21:43.980Z,100150.31
2023-04-21T13:24:14.475Z,100154.84
2023-04-21T13:26:41.746Z,100156.41
2023-04-21T13:29:09.267Z,100151.77
2023-04-21T13:31:36.488Z,100153.27
2023-04-21T13:34:03.771Z,100154.23
2023-04-21T13:36:32.036Z,100158.03
2023-04-21T13:39:00.282Z,100152.23
2023-04-21T13:41:27.267Z,100160.58
2023-04-21T13:43:55.139Z,100157.77
2023-04-21T13:46:23.433Z,100154.73
2023-04-21T13:48:51.177Z,100152.64
2023-04-21T13:51:18.912Z,100154.46
2023-04-21T13:53:48.282Z,100155.52
2023-04-21T13:56:16.408Z,100157.45
2023-04-21T13:58:44.852Z,100155.53
2023-04-21T14:01:13.772Z,100152.85
2023-04-21T14:03:41.141Z,100155.21
2023-04-21T14:06:08.616Z,100156.35
2023-04-21T14:08:36.614Z,100155.38
2023-04-21T14:11:04.209Z,100153.80
2023-04-21T14:13:39.512Z,100158.25
2023-04-21T14:16:09.665Z,100166.24
2023-04-21T14:18:39.936Z,100164.08
2023-04-21T14:21:07.011Z,100165.73
2023-04-21T14:23:34.149Z,100157.41
2023-04-21T14:26:01.198Z,100166.90
2023-04-21T14:28:28.817Z,100159.04
2023-04-21T14:30:56.045Z,100164.55
2023-04-21T14:33:23.171Z,100163.43
2023-04-21T14:35:50.143Z,100161.58
2023-04-21T14:38:17.165Z,100165.87
2023-04-21T14:40:44.428Z,100170.39
2023-04-21T14:43:11.715Z,100171.02
2023-04-21T14:45:40.606Z,100171.34
2023-04-21T14:48:07.907Z,100172.84
2023-04-21T14:50:35.552Z,100166.71
2023-04-21T14:53:02.488Z,100169.39
2023-04-21T14:55:29.401Z,100173.69
2023-04-21T14:57:57.416Z,100168.03
2023-04-21T15:00:25.425Z,100166.29
2023-04-21T15:02:52.645Z,100168.63
2023-04-21T15:05:20.391Z,100170.83
2023-04-21T15:07:47.638Z,100168.02
2023-04-21T15:10:14.779Z,100172.41
2023-04-21T15:12:43.597Z,100170.41
2023-04-21T15:15:12.489Z,100173.63
2023-04-21T15:17:40.645Z,100167.89
2023-04-21T15:20:09.670Z,100170.55
2023-04-21T15:22:37.344Z,100165.26
2023-04-21T15:25:05.317Z,100164.48
2023-04-21T15:27:32.425Z,100164.07
2023-04-21T15:29:59.563Z,100164.55
2023-04-21T15:32:26.614Z,100164.19
2023-04-21T15:34:53.716Z,100170.00
2023-04-21T15:37:22.319Z,100171.60
2023-04-21T15:39:51.316Z,100176.51
2023-04-21T15:42:18.502Z,100172.56
2023-04-21T15:44:46.590Z,100168.39
2023-04-21T15:47:15.933Z,100174.82
2023-04-21T15:49:45.076Z,100168.95
2023-04-21T15:52:12.309Z,100170.73
2023-04-21T15:54:40.502Z,100177.73
2023-04-21T15:57:08.122Z,100173.08
2023-04-21T15:59:35.742Z,100171.16
2023-04-21T16:02:05.965Z,100170.46
2023-04-21T16:04:40.518Z,100176.02
2023-04-21T16:07:08.202Z,100170.80
2023-04-21T16:09:36.022Z,100171.02
2023-04-21T16:12:08.802Z,100170.69
2023-04-21T16:14:54.588Z,100175.05
2023-04-21T16:17:32.296Z,100171.30
2023-04-21T16:20:01.362Z,100176.14
2023-04-21T16:22:28.574Z,100179.36
2023-04-21T16:24:58.216Z,100169.17
2023-04-21T16:27:26.776Z,100173.84
2023-04-21T16:29:53.877Z,100171.89
2023-04-21T16:32:21.282Z,100170.05
2023-04-21T16:34:49.106Z,100164.52
2023-04-21T16:37:16.693Z,100170.48
2023-04-21T16:39:50.146Z,100170.52
2023-04-21T16:42:19.214Z,100174.46
2023-04-21T16:44:46.348Z,100174.97
2023-04-21T16:47:13.617Z,100170.18
2023-04-21T16:49:41.180Z,100169.92
2023-04-21T16:52:08.289Z,100170.02
2023-04-21T16:54:37.527Z,100173.17
2023-04-21T16:57:26.758Z,100171.52
2023-04-21T16:59:55.658Z,100168.47
2023-04-21T17:02:24.367Z,100164.45
2023-04-21T17:04:53.267Z,100167.89
2023-04-21T17:07:22.298Z,100165.81
2023-04-21T17:09:51.600Z,100168.27
2023-04-21T17:12:20.338Z,100169.48
2023-04-21T17:14:48.956Z,100172.15
2023-04-21T17:17:17.438Z,100176.83
2023-04-21T17:19:46.160Z,100176.91
2023-04-21T17:22:14.582Z,100177.82
2023-04-21T17:24:52.475Z,100182.64
2023-04-21T17:27:22.595Z,100187.81
2023-04-21T17:29:51.445Z,100189.92
2023-04-21T17:32:20.220Z,100194.09
2023-04-21T17:34:49.996Z,100199.23
2023-04-21T17:37:18.565Z,100202.39
2023-04-21T17:39:46.997Z,100202.33
2023-04-21T17:42:16.794Z,100206.07
2023-04-21T17:44:45.372Z,100204.63
2023-04-21T17:47:13.957Z,100206.71
2023-04-21T17:49:42.681Z,100208.30
2023-04-21T17:52:11.515Z,100205.23
2023-04-21T17:54:40.220Z,100209.02
2023-04-21T17:57:09.125Z,100212.88
2023-04-21T17:59:40.755Z,100217.31
2023-04-21T18:02:10.098Z,100218.68
2023-04-21T18:04:39.170Z,100217.65
2023-04-21T18:07:08.308Z,100226.83
2023-04-21T18:09:38.286Z,100225.38
2023-04-21T18:12:07.311Z,100226.73
2023-04-21T18:14:37.102Z,100225.97
2023-04-21T18:17:06.291Z,100229.70
2023-04-21T18:19:38.191Z,100229.64
2023-04-21T18:22:08.377Z,100232.50
2023-04-21T18:24:37.326Z,100232.92
2023-04-21T18:27:06.086Z,100233.29
2023-04-21T18:29:34.926Z,100236.95
2023-04-21T18:32:05.167Z,100237.20
2023-04-21T18:34:35.473Z,100239.65
2023-04-21T18:37:23.047Z,100238.66
2023-04-21T18:40:05.989Z,100240.83
2023-04-21T18:42:34.878Z,100238.08
2023-04-21T18:45:04.799Z,100233.94
2023-04-21T18:47:36.633Z,100236.89
2023-04-21T18:50:06.719Z,100231.40
2023-04-21T18:52:39.129Z,100233.27
2023-04-21T18:55:10.338Z,100231.52
2023-04-21T18:57:39.316Z,100230.66
2023-04-21T19:00:10.264Z,100235.49
2023-04-21T19:02:39.966Z,100234.38
2023-04-21T19:05:09.441Z,100235.05
2023-04-21T19:07:37.988Z,100233.05
2023-04-21T19:10:07.680Z,100235.52
2023-04-21T19:12:37.392Z,100235.45
2023-04-21T19:15:07.528Z,100234.83
2023-04-21T19:17:36.892Z,100238.77
2023-04-21T19:20:27.076Z,100235.40
2023-04-21T19:23:01.919Z,100236.67
2023-04-21T19:25:33.278Z,100238.83
2023-04-21T19:28:02.445Z,100237.85
2023-04-21T19:30:31.166Z,100238.84
2023-04-21T19:33:00.231Z,100240.91
2023-04-21T19:35:28.919Z,100241.34
2023-04-21T19:37:57.431Z,100243.98
2023-04-21T19:40:27.171Z,100246.52
2023-04-21T19:42:56.121Z,100242.50
2023-04-21T19:45:25.704Z,100241.19
2023-04-21T19:47:54.432Z,100243.80
2023-04-21T19:50:23.246Z,100241.97
2023-04-21T19:52:51.942Z,100242.31
2023-04-21T19:55:20.835Z,100239.57
2023-04-21T19:57:49.601Z,100241.34
2023-04-21T20:00:18.091Z,100246.73
2023-04-21T20:02:46.875Z,100245.08
2023-04-21T20:05:15.687Z,100248.33
2023-04-21T20:07:44.614Z,100245.27
2023-04-21T20:10:14.144Z,100250.75
2023-04-21T20:12:42.909Z,100246.48
2023-04-21T20:15:13.040Z,100245.75
2023-04-21T20:17:42.354Z,100245.08
2023-04-21T20:20:13.334Z,100242.98
2023-04-21T20:22:41.813Z,100238.83
2023-04-21T20:25:11.038Z,100234.48
2023-04-21T20:27:40.367Z,100234.92
2023-04-21T20:30:09.290Z,100233.37
2023-04-21T20:32:38.049Z,100232.98
2023-04-21T20:35:08.437Z,100236.84
2023-04-21T20:37:37.733Z,100235.81
2023-04-21T20:40:11.800Z,100229.69
2023-04-21T20:42:40.619Z,100233.98
2023-04-21T20:45:09.722Z,100234.94
2023-04-21T20:47:40.028Z,100237.73
2023-04-21T20:50:09.251Z,100232.73
2023-04-21T20:52:38.033Z,100228.92
2023-04-21T20:55:07.223Z,100228.48
2023-04-21T20:57:35.917Z,100227.75
2023-04-21T21:00:09.993Z,100229.98
2023-04-21T21:02:39.141Z,100232.65
2023-04-21T21:05:07.984Z,100234.20
2023-04-21T21:07:37.741Z,100236.06
2023-04-21T21:10:06.609Z,100236.00
2023-04-21T21:12:36.232Z,100241.02
2023-04-21T21:15:05.731Z,100244.77
2023-04-21T21:17:34.317Z,100245.07
2023-04-21T21:20:03.077Z,100248.11
2023-04-21T21:22:32.296Z,100252.29
2023-04-21T21:25:01.114Z,100255.25
2023-04-21T21:27:29.866Z,100257.88
2023-04-21T21:29:58.209Z,100256.71
2023-04-21T21:32:26.603Z,100255.20
2023-04-21T21:34:55.491Z,100257.56
2023-04-21T21:37:24.762Z,100259.60
2023-04-21T21:39:55.063Z,100257.92
2023-04-21T21:42:24.746Z,100259.48
2023-04-21T21:44:53.210Z,100259.94
2023-04-21T21:47:21.515Z,100261.41
2023-04-21T21:50:09.843Z,100263.59
2023-04-21T21:52:40.630Z,100265.96
2023-04-21T21:55:09.520Z,100269.78
2023-04-21T21:57:38.426Z,100269.34
2023-04-21T22:00:08.981Z,100269.89
2023-04-21T22:02:38.215Z,100271.20
2023-04-21T22:05:06.734Z,100271.38
2023-04-21T22:07:36.951Z,100270.23
2023-04-21T22:10:05.897Z,100275.80
2023-04-21T22:12:34.399Z,100276.48
2023-04-21T22:15:03.019Z,100279.91
2023-04-21T22:17:31.674Z,100284.02
2023-04-21T22:20:00.892Z,100279.99
2023-04-21T22:22:29.508Z,100282.64
2023-04-21T22:24:58.168Z,100282.44
2023-04-21T22:27:26.713Z,100284.33
2023-04-21T22:29:58.606Z,100286.68
2023-04-21T22:32:29.611Z,100284.94
2023-04-21T22:34:59.383Z,100289.33
2023-04-21T22:37:28.105Z,100286.73
2023-04-21T22:39:58.128Z,100286.73
2023-04-21T22:42:27.238Z,100284.02
2023-04-21T22:44:55.738Z,100285.20
2023-04-21T22:47:24.240Z,100287.71
2023-04-21T22:49:53.693Z,100284.46
2023-04-21T22:52:22.417Z,100290.36
2023-04-21T22:54:51.126Z,100292.65
2023-04-21T22:57:20.985Z,100294.23
2023-04-21T22:59:50.399Z,100292.45
2023-04-21T23:02:18.913Z,100292.88
2023-04-21T23:04:47.739Z,100295.10
2023-04-21T23:07:16.083Z,100297.44
2023-04-21T23:09:45.215Z,100296.88
2023-04-21T23:12:15.294Z,100295.11
2023-04-21T23:14:44.518Z,100297.48
2023-04-21T23:17:12.854Z,100296.63
2023-04-21T23:19:43.427Z,100292.82
2023-04-21T23:22:12.024Z,100294.52
2023-04-21T23:24:40.452Z,100298.07
2023-04-21T23:27:10.366Z,100300.19
2023-04-21T23:29:39.078Z,100302.86
2023-04-21T23:32:08.136Z,100307.64
2023-04-21T23:34:37.249Z,100309.00
2023-04-21T23:37:05.612Z,100315.00
2023-04-21T23:39:34.324Z,100314.68
2023-04-21T23:42:04.850Z,100317.59
2023-04-21T23:44:34.071Z,100312.46
2023-04-21T23:47:02.343Z,100315.81
2023-04-21T23:49:30.903Z,100318.81
2023-04-21T23:51:59.900Z,100328.33
2023-04-21T23:54:28.777Z,100326.59
2023-04-21T23:56:57.477Z,100327.81
2023-04-21T23:59:26.652Z,100327.49
